Time;durP1;ratioP1;P1;durP2;ratioP2;P2;SDS_P1;SDS_P2;PMS_P1;PMS_P2;Temp;Humidity;BMP_temperature;BMP_pressure;BME280_temperature;BME280_humidity;BME280_pressure;Samples;Min_cycle;Max_cycle;Signal;HPM_P1;HPM_P2
2021/12/16 00:09:25;;;;;;;15.38;8.00;;;;;;;;;;5045018;28;20580;-75
2021/12/16 00:33:42;;;;;;;22.30;8.48;;;;;;;;;;5042402;28;20475;-74
2021/12/16 00:36:05;;;;;;;22.48;8.05;;;;;;;;;;5043872;28;20128;-74
2021/12/16 00:38:32;;;;;;;22.65;6.75;;;;;;;;;;5028804;28;20560;-73
2021/12/16 00:40:59;;;;;;;21.95;8.10;;;;;;;;;;5040839;28;20128;-74
2021/12/16 00:43:34;;;;;;;28.67;7.70;;;;;;;;;;5046825;28;20064;-74
2021/12/16 00:54:11;;;;;;;18.55;8.80;;;;;;;;;;5052713;28;20521;-73
2021/12/16 00:56:42;;;;;;;21.88;7.05;;;;;;;;;;5043047;28;20514;-74
2021/12/16 00:59:11;;;;;;;28.80;8.45;;;;;;;;;;5041419;28;20033;-74
2021/12/16 01:04:51;;;;;;;29.50;8.80;;;;;;;;;;5052709;28;20037;-74
2021/12/16 01:34:57;;;;;;;22.02;8.50;;;;;;;;;;5046273;28;20052;-73
2021/12/16 01:40:12;;;;;;;19.15;8.07;;;;;;;;;;5044364;28;20032;-74
2021/12/16 01:50:43;;;;;;;18.20;8.10;;;;;;;;;;5045450;28;20104;-74
2021/12/16 01:55:48;;;;;;;20.23;8.50;;;;;;;;;;5045849;28;20033;-73
2021/12/16 01:58:19;;;;;;;26.88;9.40;;;;;;;;;;5049654;28;20026;-74
2021/12/16 02:00:57;;;;;;;32.92;8.43;;;;;;;;;;5045956;28;20029;-73
2021/12/16 02:03:36;;;;;;;20.20;9.13;;;;;;;;;;5041343;28;20509;-73
2021/12/16 02:06:11;;;;;;;18.95;8.57;;;;;;;;;;5042627;28;20033;-74
2021/12/16 02:08:39;;;;;;;15.85;7.65;;;;;;;;;;5036498;28;20045;-74
2021/12/16 02:11:21;;;;;;;24.42;8.77;;;;;;;;;;5035288;28;20055;-74
2021/12/16 02:27:24;;;;;;;22.27;8.55;;;;;;;;;;5046595;28;20080;-75
2021/12/16 02:27:51;;;;;;;20.30;8.35;;;;;;;;;;5041978;28;20414;-73
2021/12/16 02:35:41;;;;;;;27.42;9.30;;;;;;;;;;5043928;28;20032;-73
2021/12/16 02:38:08;;;;;;;21.55;8.75;;;;;;;;;;5042528;28;20086;-73
2021/12/16 02:40:36;;;;;;;20.23;8.07;;;;;;;;;;5046671;28;20049;-73
2021/12/16 02:43:22;;;;;;;20.30;8.50;;;;;;;;;;5045824;28;20490;-73
2021/12/16 02:48:38;;;;;;;16.20;8.20;;;;;;;;;;5025605;28;20079;-73
2021/12/16 02:51:12;;;;;;;19.80;7.93;;;;;;;;;;5040409;28;20018;-73
2021/12/16 02:53:43;;;;;;;20.33;7.90;;;;;;;;;;5041131;28;20026;-73
2021/12/16 02:56:09;;;;;;;23.73;8.52;;;;;;;;;;5043342;28;20029;-73
2021/12/16 02:58:36;;;;;;;23.67;8.20;;;;;;;;;;5031450;28;20441;-73
2021/12/16 03:01:08;;;;;;;21.00;8.48;;;;;;;;;;5038366;28;20122;-73
2021/12/16 03:03:37;;;;;;;21.98;8.88;;;;;;;;;;5038587;28;20025;-73
2021/12/16 03:06:03;;;;;;;28.67;10.68;;;;;;;;;;5027571;28;20552;-72
2021/12/16 03:08:32;;;;;;;19.63;8.50;;;;;;;;;;5054510;28;20053;-73
2021/12/16 03:11:07;;;;;;;22.55;8.48;;;;;;;;;;5044207;28;20580;-73
2021/12/16 03:14:01;;;;;;;26.48;8.45;;;;;;;;;;5039627;28;20062;-72
2021/12/16 03:21:39;;;;;;;22.00;8.43;;;;;;;;;;5034562;28;20052;-74
2021/12/16 03:29:32;;;;;;;21.73;9.20;;;;;;;;;;5032313;28;20030;-74
2021/12/16 03:34:41;;;;;;;21.38;9.77;;;;;;;;;;5046975;28;20071;-74
2021/12/16 03:39:38;;;;;;;29.27;10.13;;;;;;;;;;5046496;28;20184;-74
2021/12/16 03:42:05;;;;;;;22.63;9.40;;;;;;;;;;5041787;28;20064;-74
2021/12/16 03:44:48;;;;;;;21.48;8.43;;;;;;;;;;5052524;28;20040;-76
2021/12/16 03:47:15;;;;;;;20.73;8.23;;;;;;;;;;5045241;28;20025;-75
2021/12/16 03:49:41;;;;;;;20.55;7.50;;;;;;;;;;5053749;28;20040;-75
2021/12/16 03:52:08;;;;;;;26.27;9.90;;;;;;;;;;5025177;28;20033;-75
2021/12/16 03:54:41;;;;;;;25.58;8.43;;;;;;;;;;5023493;28;20025;-75
2021/12/16 03:57:07;;;;;;;;;;;;;;;;;;5038957;28;20056;-75
2021/12/16 03:59:34;;;;;;;17.05;7.80;;;;;;;;;;5046154;28;19912;-76
2021/12/16 04:02:01;;;;;;;38.97;16.70;;;;;;;;;;5043979;28;20084;-75
2021/12/16 04:04:27;;;;;;;88.95;46.38;;;;;;;;;;5041865;28;20029;-75
2021/12/16 04:06:55;;;;;;;30.77;15.15;;;;;;;;;;5035910;28;20925;-74
2021/12/16 04:09:21;;;;;;;28.10;9.32;;;;;;;;;;5045422;28;20401;-74
2021/12/16 04:11:55;;;;;;;16.45;8.30;;;;;;;;;;5048010;28;20025;-75
2021/12/16 04:14:21;;;;;;;21.02;8.68;;;;;;;;;;5035408;28;20035;-74
2021/12/16 04:16:48;;;;;;;32.45;9.40;;;;;;;;;;5037043;28;20045;-75
2021/12/16 04:19:17;;;;;;;21.95;9.15;;;;;;;;;;5038740;28;20451;-74
2021/12/16 04:21:45;;;;;;;24.63;9.80;;;;;;;;;;5041245;28;20095;-75
2021/12/16 04:24:12;;;;;;;25.63;9.52;;;;;;;;;;5044928;28;20037;-75
2021/12/16 04:26:39;;;;;;;19.75;9.60;;;;;;;;;;5051888;28;20463;-73
2021/12/16 04:29:06;;;;;;;30.80;9.90;;;;;;;;;;5042802;28;20104;-75
2021/12/16 04:31:34;;;;;;;24.92;11.05;;;;;;;;;;5038278;28;20031;-77
2021/12/16 04:33:59;;;;;;;25.55;10.85;;;;;;;;;;5048134;28;20525;-77
2021/12/16 04:36:26;;;;;;;36.15;15.32;;;;;;;;;;5050111;28;20033;-77
2021/12/16 04:38:52;;;;;;;29.08;11.02;;;;;;;;;;5044256;28;20036;-75
2021/12/16 04:41:19;;;;;;;23.63;10.50;;;;;;;;;;5041751;28;20101;-75
2021/12/16 04:43:50;;;;;;;28.27;9.73;;;;;;;;;;5042579;28;20029;-75
2021/12/16 04:46:18;;;;;;;27.95;11.45;;;;;;;;;;5038207;28;20108;-74
2021/12/16 04:48:45;;;;;;;36.05;11.73;;;;;;;;;;5046481;28;20067;-75
2021/12/16 04:51:12;;;;;;;25.08;12.13;;;;;;;;;;5041640;28;20025;-75
2021/12/16 04:53:39;;;;;;;31.67;11.85;;;;;;;;;;5047464;28;20487;-75
2021/12/16 04:56:07;;;;;;;28.55;11.45;;;;;;;;;;5031622;28;20033;-75
2021/12/16 04:58:33;;;;;;;22.63;11.43;;;;;;;;;;5038149;28;20120;-75
2021/12/16 05:01:00;;;;;;;26.83;11.25;;;;;;;;;;5045220;28;20156;-75
2021/12/16 05:03:26;;;;;;;30.40;11.38;;;;;;;;;;5044093;28;21795;-75
2021/12/16 05:05:52;;;;;;;23.23;10.85;;;;;;;;;;5048976;28;20112;-75
2021/12/16 05:08:18;;;;;;;31.95;12.13;;;;;;;;;;5040242;28;20029;-75
2021/12/16 05:10:46;;;;;;;28.52;12.68;;;;;;;;;;5043535;28;20032;-75
2021/12/16 05:13:12;;;;;;;38.67;13.68;;;;;;;;;;5034981;28;20029;-75
2021/12/16 05:15:41;;;;;;;26.20;12.15;;;;;;;;;;5046995;28;20040;-76
2021/12/16 05:18:10;;;;;;;34.17;11.38;;;;;;;;;;5025100;28;20028;-76
2021/12/16 05:20:42;;;;;;;26.10;11.02;;;;;;;;;;5050119;28;20110;-76
2021/12/16 05:26:36;;;;;;;34.83;11.52;;;;;;;;;;5044218;28;20056;-74
2021/12/16 05:29:00;;;;;;;32.08;12.75;;;;;;;;;;5021855;28;20025;-74
2021/12/16 05:31:27;;;;;;;21.98;10.77;;;;;;;;;;5037095;28;20095;-74
2021/12/16 05:33:55;;;;;;;23.42;11.52;;;;;;;;;;5044650;28;20112;-75
2021/12/16 05:36:21;;;;;;;31.10;11.02;;;;;;;;;;5039413;28;20034;-75
2021/12/16 05:38:47;;;;;;;20.20;11.70;;;;;;;;;;5052343;28;20071;-74
2021/12/16 05:41:15;;;;;;;25.88;10.65;;;;;;;;;;5044046;28;20087;-75
2021/12/16 05:43:41;;;;;;;33.50;11.73;;;;;;;;;;5039588;28;20038;-75
2021/12/16 05:46:08;;;;;;;28.65;12.55;;;;;;;;;;5043394;28;20033;-75
2021/12/16 05:48:36;;;;;;;30.80;11.77;;;;;;;;;;5045143;28;20482;-76
2021/12/16 05:51:07;;;;;;;25.38;10.48;;;;;;;;;;5044780;28;20045;-77
2021/12/16 05:53:33;;;;;;;25.60;11.05;;;;;;;;;;5040325;28;20131;-75
2021/12/16 05:55:59;;;;;;;27.20;12.32;;;;;;;;;;5039372;28;20391;-78
2021/12/16 05:58:26;;;;;;;32.78;13.57;;;;;;;;;;5037977;28;20040;-74
2021/12/16 06:00:54;;;;;;;29.23;12.63;;;;;;;;;;5045843;28;20029;-75
2021/12/16 06:03:21;;;;;;;25.45;13.25;;;;;;;;;;5047627;28;20510;-74
2021/12/16 06:05:47;;;;;;;30.13;13.02;;;;;;;;;;5026770;28;20065;-74
2021/12/16 06:08:13;;;;;;;29.63;11.60;;;;;;;;;;5048159;28;20036;-74
2021/12/16 06:13:14;;;;;;;36.08;16.20;;;;;;;;;;5047498;28;20028;-74
2021/12/16 06:26:54;;;;;;;37.22;16.05;;;;;;;;;;5043082;28;20143;-73
2021/12/16 06:29:17;;;;;;;32.20;15.82;;;;;;;;;;5048395;28;20033;-73
2021/12/16 06:31:44;;;;;;;28.13;16.08;;;;;;;;;;5043134;28;20403;-74
2021/12/16 06:34:10;;;;;;;33.28;15.68;;;;;;;;;;5043157;28;20125;-74
2021/12/16 06:36:36;;;;;;;29.60;15.23;;;;;;;;;;5027441;28;20037;-73
2021/12/16 06:39:02;;;;;;;28.75;14.70;;;;;;;;;;5030326;28;20418;-73
2021/12/16 06:41:34;;;;;;;25.92;12.65;;;;;;;;;;5047771;28;20047;-73
2021/12/16 06:44:02;;;;;;;26.85;14.15;;;;;;;;;;5048919;28;20128;-73
2021/12/16 06:46:34;;;;;;;30.15;12.98;;;;;;;;;;5047394;28;20036;-73
2021/12/16 06:49:01;;;;;;;24.98;12.60;;;;;;;;;;5034924;28;20132;-74
2021/12/16 06:51:53;;;;;;;28.13;12.75;;;;;;;;;;5043859;28;20079;-73
2021/12/16 06:54:23;;;;;;;22.85;13.80;;;;;;;;;;5039332;28;20029;-73
2021/12/16 06:57:06;;;;;;;26.52;12.75;;;;;;;;;;5050324;28;20452;-73
2021/12/16 06:59:37;;;;;;;26.23;12.52;;;;;;;;;;5025227;28;20083;-73
2021/12/16 07:04:33;;;;;;;26.77;13.05;;;;;;;;;;5042656;28;20032;-73
2021/12/16 07:06:59;;;;;;;32.50;14.02;;;;;;;;;;5036547;28;20045;-73
2021/12/16 07:09:25;;;;;;;23.98;13.73;;;;;;;;;;5045611;28;20029;-72
2021/12/16 07:11:56;;;;;;;34.22;14.05;;;;;;;;;;5048817;28;20021;-72
2021/12/16 07:14:33;;;;;;;29.77;15.35;;;;;;;;;;5045678;28;20072;-73
2021/12/16 07:16:59;;;;;;;33.75;14.38;;;;;;;;;;5040554;28;20029;-72
2021/12/16 07:19:25;;;;;;;31.23;14.82;;;;;;;;;;5038587;28;20044;-72
2021/12/16 07:21:51;;;;;;;41.60;16.30;;;;;;;;;;5045209;28;21595;-72
2021/12/16 07:24:18;;;;;;;39.17;16.05;;;;;;;;;;5040460;28;20083;-73
2021/12/16 07:26:45;;;;;;;34.83;15.43;;;;;;;;;;5040430;28;20416;-72
2021/12/16 07:29:11;;;;;;;31.60;14.82;;;;;;;;;;5041379;28;20037;-72
2021/12/16 07:31:39;;;;;;;43.75;16.25;;;;;;;;;;5045705;28;20111;-72
2021/12/16 07:34:05;;;;;;;54.72;17.27;;;;;;;;;;5047895;28;20032;-72
2021/12/16 07:36:33;;;;;;;47.00;16.02;;;;;;;;;;5043093;28;20045;-73
2021/12/16 07:38:59;;;;;;;54.08;16.10;;;;;;;;;;5055946;28;20029;-73
2021/12/16 07:41:31;;;;;;;41.15;14.63;;;;;;;;;;5043067;28;20402;-73
2021/12/16 07:44:09;;;;;;;108.78;17.92;;;;;;;;;;5037714;28;20390;-73
2021/12/16 07:46:36;;;;;;;128.68;18.42;;;;;;;;;;5036806;28;20020;-73
2021/12/16 07:49:02;;;;;;;190.95;19.73;;;;;;;;;;5044785;28;20040;-73
2021/12/16 07:51:28;;;;;;;204.68;18.73;;;;;;;;;;5046532;28;20044;-73
2021/12/16 07:53:54;;;;;;;164.38;16.85;;;;;;;;;;5041153;28;20486;-73
2021/12/16 07:56:20;;;;;;;268.33;17.55;;;;;;;;;;5048705;28;20079;-73
2021/12/16 07:58:46;;;;;;;244.50;18.65;;;;;;;;;;5038013;28;20033;-73
2021/12/16 08:01:12;;;;;;;266.85;18.58;;;;;;;;;;5030036;28;20527;-72
2021/12/16 08:03:39;;;;;;;277.02;17.40;;;;;;;;;;5041605;28;20037;-73
2021/12/16 08:06:07;;;;;;;349.70;19.92;;;;;;;;;;5020369;28;20037;-73
2021/12/16 08:08:33;;;;;;;335.83;18.35;;;;;;;;;;5041069;28;20059;-73
2021/12/16 08:11:00;;;;;;;250.48;16.48;;;;;;;;;;5036173;28;20083;-73
2021/12/16 08:13:26;;;;;;;208.63;14.40;;;;;;;;;;5043212;28;20539;-73
2021/12/16 08:15:53;;;;;;;156.32;13.48;;;;;;;;;;5042383;28;20039;-73
2021/12/16 08:18:19;;;;;;;214.85;16.73;;;;;;;;;;5041023;28;20095;-73
2021/12/16 08:20:45;;;;;;;145.27;14.18;;;;;;;;;;5047866;28;20394;-72
2021/12/16 08:23:12;;;;;;;156.38;15.18;;;;;;;;;;5048722;28;20448;-72
2021/12/16 08:25:38;;;;;;;154.68;14.60;;;;;;;;;;5030487;28;20041;-72
2021/12/16 08:28:05;;;;;;;195.48;15.10;;;;;;;;;;5033542;28;20029;-73
2021/12/16 08:30:34;;;;;;;150.10;14.23;;;;;;;;;;5028721;28;20649;-72
2021/12/16 08:33:04;;;;;;;95.20;15.18;;;;;;;;;;5054492;28;20068;-73
2021/12/16 08:35:31;;;;;;;257.30;19.23;;;;;;;;;;5045880;28;20017;-73
2021/12/16 08:37:57;;;;;;;182.43;17.25;;;;;;;;;;5035138;28;20396;-73
2021/12/16 08:40:25;;;;;;;109.40;15.90;;;;;;;;;;5043147;28;20498;-73
2021/12/16 08:42:51;;;;;;;81.82;15.65;;;;;;;;;;5029535;28;20071;-73
2021/12/16 08:45:20;;;;;;;93.80;14.43;;;;;;;;;;5043261;28;22764;-75
2021/12/16 08:47:46;;;;;;;133.85;16.60;;;;;;;;;;5048205;28;20052;-73
2021/12/16 08:50:13;;;;;;;79.47;14.57;;;;;;;;;;5039992;28;20036;-74
2021/12/16 08:52:39;;;;;;;50.28;15.00;;;;;;;;;;5040383;28;20036;-74
2021/12/16 08:55:06;;;;;;;170.45;16.42;;;;;;;;;;5051015;28;20082;-74
2021/12/16 08:57:32;;;;;;;167.25;15.65;;;;;;;;;;5046665;28;20491;-74
2021/12/16 08:59:58;;;;;;;107.65;18.90;;;;;;;;;;5041472;28;20060;-74
2021/12/16 09:02:24;;;;;;;143.40;16.88;;;;;;;;;;5041375;28;20107;-74
2021/12/16 09:04:51;;;;;;;133.50;15.13;;;;;;;;;;5050575;28;20037;-74
2021/12/16 09:07:17;;;;;;;92.93;13.68;;;;;;;;;;5041762;28;20033;-76
2021/12/16 09:09:45;;;;;;;128.63;13.85;;;;;;;;;;5044055;28;20116;-75
2021/12/16 09:15:01;;;;;;;151.18;14.60;;;;;;;;;;5054794;28;20083;-75
2021/12/16 09:17:27;;;;;;;150.88;14.30;;;;;;;;;;5039736;28;20038;-75
2021/12/16 09:19:54;;;;;;;139.98;16.75;;;;;;;;;;5040869;28;20387;-75
2021/12/16 09:22:21;;;;;;;190.20;20.38;;;;;;;;;;5038147;28;20087;-75
2021/12/16 09:24:48;;;;;;;129.68;16.50;;;;;;;;;;5037757;28;20112;-75
2021/12/16 09:27:14;;;;;;;152.02;17.10;;;;;;;;;;5042478;28;20033;-76
2021/12/16 09:29:40;;;;;;;140.32;16.83;;;;;;;;;;5039828;28;20437;-75
2021/12/16 09:32:07;;;;;;;234.40;105.65;;;;;;;;;;5049996;28;20094;-74
2021/12/16 09:34:34;;;;;;;207.65;21.90;;;;;;;;;;5042658;28;20029;-75
2021/12/16 09:37:00;;;;;;;188.75;17.98;;;;;;;;;;5039669;28;20116;-75
2021/12/16 09:39:27;;;;;;;132.52;16.65;;;;;;;;;;5021290;28;20036;-74
2021/12/16 09:41:55;;;;;;;108.97;20.73;;;;;;;;;;5042891;28;20365;-75
2021/12/16 09:44:22;;;;;;;185.07;18.10;;;;;;;;;;5045433;28;20091;-75
2021/12/16 09:46:50;;;;;;;166.20;17.35;;;;;;;;;;5048595;28;20063;-75
2021/12/16 09:49:16;;;;;;;177.98;17.45;;;;;;;;;;5042461;28;20032;-74
2021/12/16 09:51:43;;;;;;;187.23;18.73;;;;;;;;;;5048372;28;20060;-73
2021/12/16 09:54:14;;;;;;;123.95;17.35;;;;;;;;;;5045042;28;20025;-74
2021/12/16 09:56:42;;;;;;;169.30;17.58;;;;;;;;;;5040615;28;20390;-74
2021/12/16 09:59:12;;;;;;;170.52;16.63;;;;;;;;;;5051475;28;20055;-74
2021/12/16 10:01:39;;;;;;;114.57;15.52;;;;;;;;;;5053622;28;20025;-74
2021/12/16 10:04:06;;;;;;;202.02;18.88;;;;;;;;;;5040067;28;20037;-74
2021/12/16 10:06:34;;;;;;;145.88;18.45;;;;;;;;;;5040753;28;20124;-75
2021/12/16 10:09:01;;;;;;;180.80;21.85;;;;;;;;;;5031071;28;20033;-75
2021/12/16 10:11:28;;;;;;;76.13;17.88;;;;;;;;;;5020148;28;20132;-75
2021/12/16 10:14:18;;;;;;;119.70;18.33;;;;;;;;;;5040574;28;20026;-74
2021/12/16 10:19:27;;;;;;;141.77;17.63;;;;;;;;;;5041375;28;20115;-74
2021/12/16 10:21:55;;;;;;;107.65;17.23;;;;;;;;;;5044475;28;20388;-74
2021/12/16 10:24:32;;;;;;;71.78;15.95;;;;;;;;;;5037509;28;20041;-75
2021/12/16 10:27:06;;;;;;;95.38;16.10;;;;;;;;;;5043700;28;20039;-74
2021/12/16 10:29:39;;;;;;;64.30;13.85;;;;;;;;;;5043314;28;20182;-75
2021/12/16 10:32:07;;;;;;;105.57;15.48;;;;;;;;;;5025271;28;20052;-75
2021/12/16 10:34:33;;;;;;;79.32;15.13;;;;;;;;;;5038161;28;20029;-75
2021/12/16 10:36:59;;;;;;;73.10;14.55;;;;;;;;;;5041404;28;20159;-75
2021/12/16 10:39:26;;;;;;;90.22;14.25;;;;;;;;;;5038160;28;20485;-75
2021/12/16 10:41:52;;;;;;;77.93;15.07;;;;;;;;;;5042086;28;20479;-75
2021/12/16 10:44:24;;;;;;;105.00;16.17;;;;;;;;;;5042262;28;20037;-75
2021/12/16 10:46:59;;;;;;;61.28;15.05;;;;;;;;;;5047414;28;20025;-74
2021/12/16 10:49:26;;;;;;;70.45;15.77;;;;;;;;;;5048837;28;20472;-75
2021/12/16 10:51:54;;;;;;;66.28;13.85;;;;;;;;;;5029126;28;20478;-76
2021/12/16 10:54:23;;;;;;;44.50;14.52;;;;;;;;;;5044479;28;20452;-75
2021/12/16 10:56:54;;;;;;;38.45;16.25;;;;;;;;;;5039041;28;20040;-76
2021/12/16 10:59:29;;;;;;;50.53;17.52;;;;;;;;;;5043516;28;20056;-76
2021/12/16 11:01:58;;;;;;;62.60;22.45;;;;;;;;;;5032626;28;20099;-76
2021/12/16 11:04:24;;;;;;;60.45;18.90;;;;;;;;;;5029748;28;20124;-76
2021/12/16 11:06:50;;;;;;;33.13;19.63;;;;;;;;;;5046455;28;20220;-75
2021/12/16 11:09:28;;;;;;;40.55;19.13;;;;;;;;;;5046946;28;20036;-76
2021/12/16 11:12:06;;;;;;;43.25;17.77;;;;;;;;;;5044012;28;20084;-77
2021/12/16 11:14:33;;;;;;;44.08;15.95;;;;;;;;;;5046109;28;20037;-76
2021/12/16 11:17:01;;;;;;;215.43;108.80;;;;;;;;;;5045009;28;20037;-81
2021/12/16 11:19:39;;;;;;;39.67;18.15;;;;;;;;;;5035681;28;20026;-77
2021/12/16 11:22:06;;;;;;;35.45;14.32;;;;;;;;;;5031618;28;20029;-75
2021/12/16 11:24:32;;;;;;;38.17;14.10;;;;;;;;;;5034673;28;20052;-75
2021/12/16 11:26:58;;;;;;;38.83;14.43;;;;;;;;;;5040979;28;20034;-76
2021/12/16 11:29:31;;;;;;;38.70;14.73;;;;;;;;;;5034849;28;20037;-74
2021/12/16 11:31:57;;;;;;;32.67;15.15;;;;;;;;;;5040312;28;20497;-75
2021/12/16 11:34:23;;;;;;;35.28;15.18;;;;;;;;;;5043481;28;20072;-77
2021/12/16 11:36:54;;;;;;;43.15;14.93;;;;;;;;;;5040981;28;20127;-77
2021/12/16 11:39:22;;;;;;;44.33;16.02;;;;;;;;;;5037601;28;20064;-74
2021/12/16 11:41:51;;;;;;;45.15;16.35;;;;;;;;;;5028649;28;20029;-74
2021/12/16 11:44:26;;;;;;;53.35;17.33;;;;;;;;;;5053178;28;20029;-76
2021/12/16 11:46:52;;;;;;;44.67;15.13;;;;;;;;;;5041611;28;20168;-76
2021/12/16 11:49:24;;;;;;;55.78;16.55;;;;;;;;;;5048374;28;20116;-76
2021/12/16 11:52:08;;;;;;;;;;;8.90;99.90;;;;;;5036215;28;20160;-76
2021/12/16 11:54:36;;;;;;;41.08;16.15;;;;;;;;;;5039467;28;19909;-76
2021/12/16 11:57:14;;;;;;;46.90;17.83;;;;;;;;;;5036159;28;20030;-76
2021/12/16 11:59:46;;;;;;;60.15;17.55;;;;;;;;;;5038180;28;20033;-76
2021/12/16 12:02:23;;;;;;;52.17;17.83;;;;;;;;;;5037051;28;20049;-76
2021/12/16 12:04:49;;;;;;;64.55;16.83;;;;;;;;;;5043464;28;20033;-76
2021/12/16 12:07:16;;;;;;;65.63;16.77;;;;;;;;;;5048035;28;20484;-76
2021/12/16 12:09:45;;;;;;;58.90;17.45;;;;;;;;;;5045559;28;20052;-75
2021/12/16 12:12:11;;;;;;;49.70;16.17;;;;;;;;;;5049107;28;20104;-75
2021/12/16 12:14:38;;;;;;;64.72;16.30;;;;;;;;;;5038628;28;20037;-75
2021/12/16 12:17:20;;;;;;;57.40;17.10;;;;;;;;;;5044609;28;20029;-75
2021/12/16 12:19:49;;;;;;;71.30;17.30;;;;;;;;;;5049613;28;20136;-75
2021/12/16 12:22:15;;;;;;;74.75;17.75;;;;;;;;;;5022365;28;20304;-75
2021/12/16 12:24:44;;;;;;;82.53;18.42;;;;;;;;;;5049930;28;20033;-75
2021/12/16 12:27:12;;;;;;;92.30;29.05;;;;;;;;;;5043804;28;20017;-75
2021/12/16 12:29:40;;;;;;;86.28;25.50;;;;;;;;;;5038222;28;20100;-75
2021/12/16 12:32:20;;;;;;;66.45;21.85;;;;;;;;;;5045257;28;20029;-75
2021/12/16 12:34:48;;;;;;;80.50;20.88;;;;;;;;;;5043796;28;20025;-75
2021/12/16 12:37:16;;;;;;;81.50;22.02;;;;;;;;;;5052172;28;20135;-75
2021/12/16 12:39:44;;;;;;;72.35;20.85;;;;;;;;;;5052530;28;21127;-75
2021/12/16 12:42:11;;;;;;;78.30;20.60;;;;;;;;;;5048320;28;20025;-76
2021/12/16 12:44:38;;;;;;;78.53;21.02;;;;;;;;;;5046061;28;20060;-75
2021/12/16 12:47:06;;;;;;;75.40;20.77;;;;;;;;;;5052553;28;20041;-75
2021/12/16 12:49:32;;;;;;;67.15;21.00;;;;;;;;;;5048927;28;20036;-75
2021/12/16 12:52:04;;;;;;;82.43;23.17;;;;;;;;;;5051422;28;20471;-75
2021/12/16 12:54:30;;;;;;;75.80;22.00;;;;;;;;;;5044819;28;20044;-75
2021/12/16 12:56:59;;;;;;;85.15;22.42;;;;;;;;;;5034582;28;20414;-75
2021/12/16 12:59:36;;;;;;;84.88;23.17;;;;;;;;;;5045516;28;20025;-75
2021/12/16 13:02:12;;;;;;;60.45;22.70;;;;;;;;;;5045992;28;20051;-75
2021/12/16 13:04:50;;;;;;;71.70;21.60;;;;;;;;;;5046974;28;20368;-75
2021/12/16 13:07:16;;;;;;;51.25;20.48;;;;;;;;;;5040485;28;20045;-74
2021/12/16 13:09:49;;;;;;;58.38;21.48;;;;;;;;;;5031609;28;20041;-74
2021/12/16 13:12:34;;;;;;;54.00;21.15;;;;;;;;;;5042129;28;20031;-74
2021/12/16 13:15:10;;;;;;;68.03;23.25;;;;;;;;;;5041633;28;20087;-75
2021/12/16 13:28:54;;;;;;;73.97;24.05;;;;;;;;;;5038964;28;20071;-75
2021/12/16 13:31:27;;;;;;;67.53;24.35;;;;;;;;;;5042633;28;20021;-80
2021/12/16 13:33:56;;;;;;;74.65;23.75;;;;;;;;;;5047637;28;20025;-75
2021/12/16 13:36:41;;;;;;;45.22;20.60;;;;;;;;;;5048540;28;20037;-75
2021/12/16 13:39:26;;;;;;;60.15;25.35;;;;;;;;;;5047134;28;20040;-75
2021/12/16 13:41:57;;;;;;;57.10;22.67;;;;;;;;;;5045609;28;20082;-75
2021/12/16 13:44:39;;;;;;;71.22;24.35;;;;;;;;;;5041069;28;20378;-76
2021/12/16 13:48:03;;;;;;;53.13;18.95;;;;;;;;;;5044704;28;20506;-74
2021/12/16 13:58:46;;;;;;;;;;;;;;;;;;;;;
2021/12/16 14:07:13;;;;;;;53.63;23.25;;;;;;;;;;5041092;28;20078;-76
2021/12/16 14:10:09;;;;;;;62.50;20.67;;;;;;;;;;5030204;28;20037;-76
2021/12/16 14:15:25;;;;;;;52.67;20.83;;;;;;;;;;5039644;28;20039;-78
2021/12/16 14:18:01;;;;;;;56.13;20.37;;;;;;;;;;5047551;28;20481;-76
2021/12/16 14:23:27;;;;;;;64.68;21.77;;;;;;;;;;5048496;28;20102;-75
2021/12/16 14:39:44;;;;;;;58.65;23.38;;;;;;;;;;5044422;28;20053;-76
2021/12/16 14:50:44;;;;;;;45.97;22.02;;;;;;;;;;5024024;28;20025;-76
2021/12/16 14:53:13;;;;;;;52.53;23.67;;;;;;;;;;5043856;28;20081;-75
2021/12/16 14:55:39;;;;;;;63.50;28.10;;;;;;;;;;5046251;28;20471;-75
2021/12/16 14:58:05;;;;;;;81.22;28.15;;;;;;;;;;5042455;28;20443;-76
2021/12/16 15:00:45;;;;;;;59.05;23.83;;;;;;;;;;5013635;28;20060;-75
2021/12/16 15:03:14;;;;;;;62.03;24.48;;;;;;;;;;5043222;28;20052;-76
2021/12/16 15:05:46;;;;;;;56.05;23.60;;;;;;;;;;5042810;28;20699;-75
2021/12/16 15:08:13;;;;;;;54.83;22.65;;;;;;;;;;5035403;28;20120;-75
2021/12/16 15:10:40;;;;;;;68.90;22.77;;;;;;;;;;5039213;28;20017;-75
2021/12/16 15:13:13;;;;;;;78.82;24.42;;;;;;;;;;5049495;28;20479;-75
2021/12/16 15:16:35;;;;;;;78.13;24.48;;;;;;;;;;5027096;28;20076;-76
2021/12/16 15:43:03;;;;;;;62.25;26.02;;;;;;;;;;5043331;28;24375;-76
2021/12/16 15:45:32;;;;;;;66.25;26.75;;;;;;;;;;5054126;28;20063;-76
2021/12/16 15:47:59;;;;;;;49.42;24.17;;;;;;;;;;5031218;28;20127;-76
2021/12/16 15:50:29;;;;;;;55.28;26.15;;;;;;;;;;5047280;28;20399;-74
2021/12/16 15:52:55;;;;;;;58.13;27.08;;;;;;;;;;5044069;28;20024;-76
2021/12/16 15:55:32;;;;;;;63.63;29.65;;;;;;;;;;5035558;28;20033;-76
2021/12/16 15:58:07;;;;;;;51.83;26.83;;;;;;;;;;5043897;28;20029;-74
2021/12/16 16:00:33;;;;;;;59.35;26.60;;;;;;;;;;5042042;28;20037;-76
2021/12/16 16:03:01;;;;;;;53.05;24.60;;;;;;;;;;5039242;28;20038;-76
2021/12/16 16:05:34;;;;;;;47.10;24.00;;;;;;;;;;5047128;28;20036;-76
2021/12/16 16:08:02;;;;;;;52.83;25.10;;;;;;;;;;5047017;28;20048;-76
2021/12/16 16:10:28;;;;;;;55.45;25.35;;;;;;;;;;5045526;28;20052;-76
2021/12/16 16:12:54;;;;;;;48.45;24.02;;;;;;;;;;5044175;28;20026;-76
2021/12/16 16:15:22;;;;;;;54.72;23.70;;;;;;;;;;5046158;28;20033;-74
2021/12/16 16:18:14;;;;;;;53.70;22.90;;;;;;;;;;5050495;28;20067;-75
2021/12/16 16:20:41;;;;;;;52.15;21.40;;;;;;;;;;5047633;28;20479;-75
2021/12/16 16:23:09;;;;;;;44.78;22.08;;;;;;;;;;5047676;28;20032;-75
2021/12/16 16:25:36;;;;;;;52.75;22.58;;;;;;;;;;5043637;28;20029;-75
2021/12/16 16:28:02;;;;;;;53.97;22.55;;;;;;;;;;5045288;28;20552;-75
2021/12/16 16:30:29;;;;;;;47.55;21.13;;;;;;;;;;5041368;28;20050;-75
2021/12/16 16:33:05;;;;;;;49.65;21.42;;;;;;;;;;5048401;28;20028;-76
2021/12/16 16:35:32;;;;;;;47.72;22.20;;;;;;;;;;5042988;28;20033;-77
2021/12/16 16:38:17;;;;;;;56.85;22.55;;;;;;;;;;5043530;28;20506;-77
2021/12/16 16:40:45;;;;;;;45.30;20.65;;;;;;;;;;5046721;28;20032;-77
2021/12/16 16:43:18;;;;;;;47.75;22.70;;;;;;;;;;5040237;28;20479;-77
2021/12/16 16:45:44;;;;;;;44.45;21.05;;;;;;;;;;5041084;28;20064;-77
2021/12/16 16:48:30;;;;;;;52.40;23.05;;;;;;;;;;5042473;28;20116;-77
2021/12/16 16:51:07;;;;;;;61.63;24.00;;;;;;;;;;5045839;28;20076;-79
2021/12/16 16:53:43;;;;;;;53.45;21.02;;;;;;;;;;5048955;28;20029;-79
2021/12/16 16:56:09;;;;;;;57.85;24.25;;;;;;;;;;5048417;28;20094;-80
2021/12/16 16:58:35;;;;;;;57.92;21.52;;;;;;;;;;5034297;28;20033;-81
2021/12/16 17:01:02;;;;;;;70.88;26.02;;;;;;;;;;5045600;28;20132;-80
2021/12/16 17:03:30;;;;;;;69.20;24.63;;;;;;;;;;5047674;28;20045;-79
2021/12/16 17:05:59;;;;;;;77.07;27.70;;;;;;;;;;5042949;28;20040;-76
2021/12/16 17:08:27;;;;;;;67.47;27.52;;;;;;;;;;5039377;28;20021;-77
2021/12/16 17:10:57;;;;;;;80.20;27.08;;;;;;;;;;5043983;28;20028;-78
2021/12/16 17:13:36;;;;;;;85.43;30.63;;;;;;;;;;5046113;28;20032;-77
2021/12/16 17:18:36;;;;;;;75.38;25.95;;;;;;;;;;5044437;28;20029;-77
2021/12/16 17:21:12;;;;;;;81.75;26.02;;;;;;;;;;5041507;28;20482;-78
2021/12/16 17:23:38;;;;;;;79.88;28.00;;;;;;;;;;5029385;28;20057;-78
2021/12/16 17:26:18;;;;;;;98.20;27.30;;;;;;;;;;5037726;28;20442;-78
2021/12/16 17:28:44;;;;;;;85.95;27.17;;;;;;;;;;5045371;28;20074;-77
2021/12/16 17:31:10;;;;;;;90.45;27.60;;;;;;;;;;5047499;28;20083;-78
2021/12/16 17:33:36;;;;;;;95.15;28.15;;;;;;;;;;5039831;28;20045;-76
2021/12/16 17:36:03;;;;;;;77.97;27.00;;;;;;;;;;5049443;28;20430;-77
2021/12/16 17:38:31;;;;;;;90.82;27.52;;;;;;;;;;5044459;28;20028;-77
2021/12/16 17:41:01;;;;;;;125.20;27.58;;;;;;;;;;5045348;28;20039;-77
2021/12/16 17:43:29;;;;;;;165.30;30.40;;;;;;;;;;5044835;28;20079;-77
2021/12/16 17:45:57;;;;;;;89.45;27.70;;;;;;;;;;5037016;28;20550;-76
2021/12/16 17:48:26;;;;;;;96.75;28.20;;;;;;;;;;5045313;28;20025;-77
2021/12/16 17:50:54;;;;;;;98.80;26.90;;;;;;;;;;5038419;28;20025;-76
2021/12/16 17:53:21;;;;;;;85.60;26.80;;;;;;;;;;5040604;28;20030;-76
2021/12/16 17:55:52;;;;;;;76.57;26.00;;;;;;;;;;5039704;28;20497;-76
2021/12/16 17:58:22;;;;;;;80.22;23.17;;;;;;;;;;5046194;28;20483;-78
2021/12/16 18:00:48;;;;;;;87.55;24.63;;;;;;;;;;5040043;28;20029;-77
2021/12/16 18:03:15;;;;;;;79.82;24.27;;;;;;;;;;5051255;28;20103;-78
2021/12/16 18:05:48;;;;;;;67.18;25.38;;;;;;;;;;5044993;28;20056;-78
2021/12/16 18:08:22;;;;;;;78.53;23.50;;;;;;;;;;5036147;28;20059;-78
2021/12/16 18:10:48;;;;;;;79.15;24.98;;;;;;;;;;5040167;28;20032;-77
2021/12/16 18:13:14;;;;;;;72.28;23.02;;;;;;;;;;5045120;28;20021;-79
2021/12/16 18:15:40;;;;;;;81.78;32.20;;;;;;;;;;5046058;28;20034;-80